Waskesiu Lake, Canada
Current Conditions -  °F | °C
As of 1:13 AM on Saturday 20 Dec 2014 (Local Time) from CYPA Reporting Station
Haze Haze  
Wind Chill:   Ceiling: 300
Heat Index: 16°   Visibility: 2.5mi
Dew Point: 16°   Wind: 6mph
Humidity: 100%   Direction: 130°SE
Pressure: 29.88"   Gusts: NA
Location:  53.92°N, 106.08°W
Report Text: CYPA 200713Z 13005KT 2 1/2SM BR OVC003 M09/M09 A2988 RMK ST8 SLP149
Loading
Personal Weather Stations






























Interactive Weather Map New forecast layout! Learn more

10-Day Weather Forecast

Advertisements
Track Severe Weather on mobile